createdAt,value
2017-02-10T00:00:04.489Z,0
2017-02-10T00:01:04.475Z,0
2017-02-10T00:02:04.448Z,0
2017-02-10T00:03:04.417Z,0
2017-02-10T00:04:04.507Z,0
2017-02-10T00:05:04.398Z,0
2017-02-10T00:06:04.373Z,0
2017-02-10T00:07:04.359Z,0
2017-02-10T00:08:04.348Z,0
2017-02-10T00:09:03.907Z,0
2017-02-10T00:10:04.294Z,0
2017-02-10T00:11:04.283Z,0
2017-02-10T00:12:04.263Z,0
2017-02-10T00:13:03.845Z,0
2017-02-10T00:14:04.219Z,0
2017-02-10T00:15:04.206Z,0
2017-02-10T00:16:04.189Z,0
2017-02-10T00:17:04.166Z,0
2017-02-10T00:18:04.144Z,0
2017-02-10T00:19:04.131Z,0
2017-02-10T00:20:04.100Z,0
2017-02-10T00:21:04.103Z,0
2017-02-10T00:22:03.675Z,0
2017-02-10T00:23:04.052Z,0
2017-02-10T00:24:04.041Z,0
2017-02-10T00:25:04.027Z,0
2017-02-10T00:26:03.997Z,0
2017-02-10T00:27:03.588Z,0
2017-02-10T00:28:03.557Z,0
2017-02-10T00:29:03.544Z,0
2017-02-10T00:30:03.926Z,0
2017-02-10T00:31:03.499Z,0
2017-02-10T00:32:03.491Z,0
2017-02-10T00:33:03.865Z,0
2017-02-10T00:34:03.839Z,0
2017-02-10T00:35:03.434Z,0
2017-02-10T00:36:03.816Z,0
2017-02-10T00:37:03.382Z,0
2017-02-10T00:38:03.369Z,0
2017-02-10T00:39:03.749Z,0
2017-02-10T00:40:03.737Z,0
2017-02-10T00:41:03.746Z,0
2017-02-10T00:42:03.693Z,0
2017-02-10T00:43:03.681Z,0
2017-02-10T00:44:03.656Z,0
2017-02-10T00:45:03.637Z,0
2017-02-10T00:46:03.224Z,0
2017-02-10T00:47:03.463Z,0
2017-02-10T00:48:04.573Z,0
2017-02-10T00:49:03.556Z,0
2017-02-10T00:50:03.543Z,0
2017-02-10T00:51:03.514Z,0
2017-02-10T00:52:03.507Z,0
2017-02-10T00:53:03.483Z,0
2017-02-10T00:54:03.464Z,0
2017-02-10T00:55:03.448Z,0
2017-02-10T00:56:03.036Z,0
2017-02-10T00:57:03.417Z,0
2017-02-10T00:58:03.831Z,0
2017-02-10T00:59:02.970Z,0
2017-02-10T01:00:03.346Z,0
2017-02-10T01:01:03.348Z,0
2017-02-10T01:02:03.610Z,0
2017-02-10T01:03:03.534Z,0
2017-02-10T01:04:03.623Z,0
2017-02-10T01:05:03.575Z,0
2017-02-10T01:06:03.959Z,0
2017-02-10T01:07:03.476Z,0
2017-02-10T01:08:03.703Z,0
2017-02-10T01:09:03.969Z,0
2017-02-10T01:10:03.467Z,0
2017-02-10T01:11:04.103Z,0
2017-02-10T01:12:03.741Z,0
2017-02-10T01:13:03.331Z,0
2017-02-10T01:14:03.445Z,0
2017-02-10T01:15:03.494Z,0
2017-02-10T01:16:03.918Z,0
2017-02-10T01:17:03.844Z,0
2017-02-10T01:18:03.646Z,0
2017-02-10T01:19:03.319Z,0
2017-02-10T01:20:03.250Z,0
2017-02-10T01:21:03.657Z,0
2017-02-10T01:22:03.762Z,0
2017-02-10T01:23:03.104Z,0
2017-02-10T01:24:03.175Z,0
2017-02-10T01:25:03.752Z,0
2017-02-10T01:26:03.866Z,0
2017-02-10T01:27:03.346Z,0
2017-02-10T01:28:02.617Z,0
2017-02-10T01:29:03.904Z,0
2017-02-10T01:30:03.432Z,0
2017-02-10T01:31:02.979Z,0
2017-02-10T01:32:03.996Z,0
2017-02-10T01:33:03.372Z,0
2017-02-10T01:34:03.567Z,0
2017-02-10T01:35:03.563Z,0
2017-02-10T01:36:03.570Z,0
2017-02-10T01:37:03.383Z,0
2017-02-10T01:38:03.439Z,0
2017-02-10T01:39:03.316Z,0
2017-02-10T01:40:32.025Z,0
2017-02-10T01:41:02.844Z,0
2017-02-10T01:42:02.874Z,0
2017-02-10T01:43:01.895Z,0
2017-02-10T01:44:03.385Z,0
2017-02-10T01:45:02.561Z,0
2017-02-10T01:46:03.034Z,0
2017-02-10T01:47:02.039Z,0
2017-02-10T01:48:03.235Z,0
2017-02-10T01:49:02.801Z,0
2017-02-10T01:50:02.151Z,0
2017-02-10T01:51:02.069Z,0
2017-02-10T01:52:02.376Z,0
2017-02-10T01:53:01.956Z,0
2017-02-10T01:54:02.343Z,0
2017-02-10T01:55:02.300Z,0
2017-02-10T01:56:02.290Z,0
2017-02-10T01:57:01.925Z,0
2017-02-10T01:58:02.310Z,0
2017-02-10T01:59:01.841Z,0
2017-02-10T02:00:01.856Z,0
2017-02-10T02:01:02.208Z,0
2017-02-10T02:02:02.182Z,0
2017-02-10T02:03:02.307Z,0
2017-02-10T02:04:02.170Z,0
2017-02-10T02:05:02.129Z,0
2017-02-10T02:06:02.109Z,0
2017-02-10T02:07:02.155Z,0
2017-02-10T02:08:01.669Z,0
2017-02-10T02:09:02.052Z,0
2017-02-10T02:10:02.045Z,0
2017-02-10T02:11:02.006Z,0
2017-02-10T02:12:01.993Z,0
2017-02-10T02:13:01.959Z,0
2017-02-10T02:14:01.956Z,0
2017-02-10T02:15:01.928Z,0
2017-02-10T02:16:01.925Z,0
2017-02-10T02:17:01.101Z,0
2017-02-10T02:18:01.883Z,0
2017-02-10T02:19:01.856Z,0
2017-02-10T02:20:01.845Z,0
2017-02-10T02:21:01.819Z,0
2017-02-10T02:22:01.800Z,0
2017-02-10T02:23:01.784Z,0
2017-02-10T02:24:01.754Z,0
2017-02-10T02:25:01.337Z,0
2017-02-10T02:26:01.298Z,0
2017-02-10T02:27:01.694Z,0
2017-02-10T02:28:01.270Z,0
2017-02-10T02:29:01.702Z,0
2017-02-10T02:30:01.632Z,0
2017-02-10T02:31:01.620Z,0
2017-02-10T02:32:01.596Z,0
2017-02-10T02:33:01.580Z,0
2017-02-10T02:34:01.557Z,0
2017-02-10T02:35:01.551Z,0
2017-02-10T02:36:00.728Z,0
2017-02-10T02:37:01.506Z,0
2017-02-10T02:38:01.488Z,0
2017-02-10T02:39:01.466Z,0
2017-02-10T02:40:01.538Z,0
2017-02-10T02:41:01.406Z,0
2017-02-10T02:42:01.394Z,0
2017-02-10T02:43:01.379Z,0
2017-02-10T02:44:01.362Z,0
2017-02-10T02:45:01.332Z,0
2017-02-10T02:46:01.313Z,0
2017-02-10T02:47:01.303Z,0
2017-02-10T02:48:01.279Z,0
2017-02-10T02:49:01.265Z,0
2017-02-10T02:50:01.254Z,0
2017-02-10T02:51:01.222Z,0
2017-02-10T02:52:01.213Z,0
2017-02-10T02:53:01.187Z,0
2017-02-10T02:54:01.158Z,0
2017-02-10T02:55:01.146Z,0
2017-02-10T02:56:01.117Z,0
2017-02-10T02:57:01.110Z,0
2017-02-10T02:58:01.108Z,0
2017-02-10T02:59:01.093Z,0
2017-02-10T03:00:01.073Z,0
2017-02-10T03:01:01.036Z,0
2017-02-10T03:02:01.019Z,0
2017-02-10T03:03:00.999Z,0
2017-02-10T03:04:00.991Z,0
2017-02-10T03:05:00.954Z,0
2017-02-10T03:06:00.937Z,0
2017-02-10T03:07:00.532Z,0
2017-02-10T03:08:00.910Z,0
2017-02-10T03:09:00.888Z,0
2017-02-10T03:10:00.866Z,0
2017-02-10T03:11:00.844Z,0
2017-02-10T03:12:00.823Z,0
2017-02-10T03:13:00.798Z,0
2017-02-10T03:14:00.774Z,0
2017-02-10T03:15:00.769Z,0
2017-02-10T03:16:00.740Z,0
2017-02-10T03:17:00.717Z,0
2017-02-10T03:18:00.698Z,0
2017-02-10T03:19:00.674Z,0
2017-02-10T03:20:00.659Z,0
2017-02-10T03:21:00.642Z,0
2017-02-10T03:22:00.616Z,0
2017-02-10T03:23:00.610Z,0
2017-02-10T03:24:00.583Z,0
2017-02-10T03:25:00.167Z,0
2017-02-10T03:26:00.540Z,0
2017-02-10T03:27:00.526Z,0
2017-02-10T03:28:00.503Z,0
2017-02-10T03:28:59.678Z,0
2017-02-10T03:30:00.466Z,0
2017-02-10T03:31:00.461Z,0
2017-02-10T03:32:00.424Z,0
2017-02-10T03:33:00.402Z,0
2017-02-10T03:34:00.396Z,0
2017-02-10T03:35:00.370Z,0
2017-02-10T03:36:00.347Z,0
2017-02-10T03:37:00.322Z,0
2017-02-10T03:38:00.301Z,0
2017-02-10T03:39:00.286Z,0
2017-02-10T03:40:00.272Z,0
2017-02-10T03:41:00.238Z,0
2017-02-10T03:42:00.218Z,0
2017-02-10T03:43:00.219Z,0
2017-02-10T03:43:59.798Z,0
2017-02-10T03:45:00.164Z,0
2017-02-10T03:46:00.165Z,0
2017-02-10T03:47:00.131Z,0
2017-02-10T03:48:00.104Z,0
2017-02-10T03:49:00.084Z,0
2017-02-10T03:50:00.071Z,0
2017-02-10T03:50:59.651Z,0
2017-02-10T03:51:59.631Z,0
2017-02-10T03:52:59.606Z,0
2017-02-10T03:53:59.583Z,0
2017-02-10T03:54:59.978Z,0
2017-02-10T03:55:59.551Z,0
2017-02-10T03:56:59.530Z,0
2017-02-10T03:57:59.519Z,0
2017-02-10T03:58:59.891Z,0
2017-02-10T03:59:59.865Z,0
2017-02-10T04:00:59.861Z,0
2017-02-10T04:01:59.852Z,0
2017-02-10T04:02:59.817Z,0
2017-02-10T04:03:59.794Z,0
2017-02-10T04:04:59.779Z,0
2017-02-10T04:05:59.756Z,0
2017-02-10T04:06:59.734Z,0
2017-02-10T04:07:59.719Z,0
2017-02-10T04:08:59.707Z,0
2017-02-10T04:09:59.677Z,0
2017-02-10T04:10:59.665Z,0
2017-02-10T04:11:59.640Z,0
2017-02-10T04:12:59.627Z,0
2017-02-10T04:13:59.601Z,0
2017-02-10T04:14:59.575Z,0
2017-02-10T04:15:59.558Z,0
2017-02-10T04:16:59.536Z,0
2017-02-10T04:17:59.511Z,0
2017-02-10T04:18:59.502Z,0
2017-02-10T04:19:59.476Z,0
2017-02-10T04:20:59.510Z,0
2017-02-10T04:21:59.443Z,0
2017-02-10T04:22:59.422Z,0
2017-02-10T04:23:59.405Z,0
2017-02-10T04:24:59.387Z,0
2017-02-10T04:25:59.354Z,0
2017-02-10T04:26:59.339Z,0
2017-02-10T04:27:59.334Z,0
2017-02-10T04:28:59.307Z,0
2017-02-10T04:29:59.278Z,0
2017-02-10T04:30:59.256Z,0
2017-02-10T04:31:59.259Z,0
2017-02-10T04:32:59.231Z,0
2017-02-10T04:33:59.201Z,0
2017-02-10T04:34:59.173Z,0
2017-02-10T04:35:59.167Z,0
2017-02-10T04:36:58.745Z,0
2017-02-10T04:37:59.137Z,0
2017-02-10T04:38:59.107Z,0
2017-02-10T04:39:59.082Z,0
2017-02-10T04:40:59.067Z,0
2017-02-10T04:41:59.041Z,0
2017-02-10T04:42:59.030Z,0
2017-02-10T04:43:59.013Z,0
2017-02-10T04:44:59.003Z,0
2017-02-10T04:45:58.973Z,0
2017-02-10T04:46:58.948Z,0
2017-02-10T04:47:58.937Z,0
2017-02-10T04:48:58.911Z,0
2017-02-10T04:49:58.886Z,0
2017-02-10T04:50:58.863Z,0
2017-02-10T04:51:58.843Z,0
2017-02-10T04:52:58.822Z,0
2017-02-10T04:53:58.814Z,0
2017-02-10T04:54:58.793Z,0
2017-02-10T04:55:58.808Z,0
2017-02-10T04:56:58.759Z,0
2017-02-10T04:57:58.757Z,0
2017-02-10T04:58:58.708Z,0
2017-02-10T04:59:58.704Z,0
2017-02-10T05:00:58.668Z,0
2017-02-10T05:01:58.652Z,0
2017-02-10T05:02:58.632Z,0
2017-02-10T05:03:58.641Z,0
2017-02-10T05:04:58.586Z,0
2017-02-10T05:05:58.572Z,0
2017-02-10T05:06:58.556Z,0
2017-02-10T05:07:58.542Z,0
2017-02-10T05:08:58.526Z,0
2017-02-10T05:09:58.496Z,0
2017-02-10T05:10:58.488Z,0
2017-02-10T05:11:58.451Z,0
2017-02-10T05:12:58.434Z,0
2017-02-10T05:13:58.410Z,0
2017-02-10T05:14:58.405Z,0
2017-02-10T05:15:58.390Z,0
2017-02-10T05:16:58.362Z,0
2017-02-10T05:17:58.342Z,0
2017-02-10T05:18:58.317Z,0
2017-02-10T05:19:58.299Z,0
2017-02-10T05:20:58.284Z,0
2017-02-10T05:21:58.263Z,0
2017-02-10T05:22:58.256Z,0
2017-02-10T05:23:58.216Z,0
2017-02-10T05:24:58.204Z,0
2017-02-10T05:25:58.185Z,0
2017-02-10T05:26:58.160Z,0
2017-02-10T05:27:58.138Z,0
2017-02-10T05:28:58.130Z,0
2017-02-10T05:29:58.099Z,0
2017-02-10T05:30:58.081Z,0
2017-02-10T05:31:58.076Z,0
2017-02-10T05:32:58.043Z,0
2017-02-10T05:33:58.029Z,0
2017-02-10T05:34:58.118Z,0
2017-02-10T05:35:57.981Z,0
2017-02-10T05:36:57.974Z,0
2017-02-10T05:37:57.554Z,0
2017-02-10T05:38:57.531Z,0
2017-02-10T05:39:57.933Z,0
2017-02-10T05:40:57.890Z,0
2017-02-10T05:41:57.872Z,0
2017-02-10T05:42:57.847Z,0
2017-02-10T05:43:57.022Z,0
2017-02-10T05:44:57.504Z,0
2017-02-10T05:45:57.792Z,0
2017-02-10T05:46:57.766Z,0
2017-02-10T05:47:57.747Z,0
2017-02-10T05:48:57.736Z,0
2017-02-10T05:49:57.712Z,0
2017-02-10T05:50:57.286Z,0
2017-02-10T05:51:57.670Z,0
2017-02-10T05:52:57.255Z,0
2017-02-10T05:53:57.245Z,0
2017-02-10T05:54:57.309Z,0
2017-02-10T05:55:57.599Z,0
2017-02-10T05:56:57.590Z,0
2017-02-10T05:57:57.559Z,0
2017-02-10T05:58:57.533Z,0
2017-02-10T05:59:57.120Z,0
2017-02-10T06:00:57.492Z,0
2017-02-10T06:01:57.470Z,0
2017-02-10T06:02:57.469Z,0
2017-02-10T06:03:57.045Z,4
2017-02-10T06:04:57.522Z,0
2017-02-10T06:05:57.008Z,4
2017-02-10T06:06:57.387Z,4
2017-02-10T06:07:57.364Z,4
2017-02-10T06:08:57.354Z,8
2017-02-10T06:09:57.325Z,4
2017-02-10T06:10:56.908Z,4
2017-02-10T06:11:56.483Z,8
2017-02-10T06:12:57.267Z,8
2017-02-10T06:13:57.241Z,12
2017-02-10T06:14:56.921Z,12
2017-02-10T06:15:56.822Z,16
2017-02-10T06:16:57.187Z,16
2017-02-10T06:17:57.177Z,20
2017-02-10T06:18:57.151Z,28
2017-02-10T06:19:57.226Z,28
2017-02-10T06:20:57.111Z,32
2017-02-10T06:21:57.110Z,36
2017-02-10T06:22:57.068Z,36
2017-02-10T06:23:57.054Z,44
2017-02-10T06:24:57.036Z,48
2017-02-10T06:25:57.009Z,56
2017-02-10T06:26:56.989Z,60
2017-02-10T06:27:57.013Z,60
2017-02-10T06:28:56.951Z,72
2017-02-10T06:29:57.033Z,80
2017-02-10T06:30:56.920Z,92
2017-02-10T06:31:56.904Z,100
2017-02-10T06:32:56.896Z,108
2017-02-10T06:33:56.855Z,124
2017-02-10T06:34:56.950Z,136
2017-02-10T06:35:56.818Z,140
2017-02-10T06:36:56.810Z,176
2017-02-10T06:37:56.784Z,196
2017-02-10T06:38:56.765Z,232
2017-02-10T06:39:56.739Z,244
2017-02-10T06:40:56.728Z,252
2017-02-10T06:41:56.725Z,276
2017-02-10T06:42:56.687Z,312
2017-02-10T06:43:56.682Z,328
2017-02-10T06:44:56.751Z,364
2017-02-10T06:45:56.623Z,352
2017-02-10T06:46:56.614Z,400
2017-02-10T06:47:56.604Z,488
2017-02-10T06:48:56.583Z,592
2017-02-10T06:49:56.569Z,696
2017-02-10T06:50:56.544Z,704
2017-02-10T06:51:56.512Z,704
2017-02-10T06:52:56.499Z,724
2017-02-10T06:53:56.474Z,728
2017-02-10T06:54:56.467Z,744
2017-02-10T06:55:56.443Z,664
2017-02-10T06:56:56.429Z,660
2017-02-10T06:57:56.409Z,680
2017-02-10T06:58:56.404Z,648
2017-02-10T06:59:56.371Z,636
2017-02-10T07:00:56.340Z,656
2017-02-10T07:01:56.325Z,584
2017-02-10T07:02:56.315Z,556
2017-02-10T07:03:56.304Z,536
2017-02-10T07:04:56.274Z,576
2017-02-10T07:05:56.247Z,640
2017-02-10T07:06:56.235Z,688
2017-02-10T07:07:56.214Z,740
2017-02-10T07:08:56.193Z,768
2017-02-10T07:09:56.283Z,744
2017-02-10T07:10:56.162Z,728
2017-02-10T07:11:55.750Z,852
2017-02-10T07:12:56.121Z,904
2017-02-10T07:13:56.100Z,892
2017-02-10T07:14:56.086Z,872
2017-02-10T07:15:56.071Z,916
2017-02-10T07:16:56.087Z,992
2017-02-10T07:17:56.043Z,928
2017-02-10T07:18:55.623Z,944
2017-02-10T07:19:55.987Z,1000
2017-02-10T07:20:55.978Z,1024
2017-02-10T07:21:55.957Z,1012
2017-02-10T07:22:55.947Z,1056
2017-02-10T07:23:55.926Z,1152
2017-02-10T07:24:55.896Z,1132
2017-02-10T07:25:55.880Z,1156
2017-02-10T07:26:55.871Z,1156
2017-02-10T07:27:55.855Z,1096
2017-02-10T07:28:55.818Z,1100
2017-02-10T07:29:55.821Z,1192
2017-02-10T07:30:55.793Z,1164
2017-02-10T07:31:55.765Z,1156
2017-02-10T07:32:55.347Z,1240
2017-02-10T07:33:55.737Z,1200
2017-02-10T07:34:55.731Z,1244
2017-02-10T07:35:55.712Z,1244
2017-02-10T07:36:55.683Z,1248
2017-02-10T07:37:55.665Z,1308
2017-02-10T07:38:55.644Z,1392
2017-02-10T07:39:55.237Z,1380
2017-02-10T07:40:55.204Z,1488
2017-02-10T07:41:55.604Z,1400
2017-02-10T07:42:55.166Z,1352
2017-02-10T07:43:55.154Z,1468
2017-02-10T07:44:55.547Z,1452
2017-02-10T07:45:55.519Z,1740
2017-02-10T07:46:55.503Z,1736
2017-02-10T07:47:55.477Z,1700
2017-02-10T07:48:55.460Z,1752
2017-02-10T07:49:55.043Z,1608
2017-02-10T07:50:55.441Z,1576
2017-02-10T07:51:55.419Z,1816
2017-02-10T07:52:55.433Z,1784
2017-02-10T07:53:55.382Z,1836
2017-02-10T07:54:55.351Z,1976
2017-02-10T07:55:55.346Z,1964
2017-02-10T07:56:55.325Z,1948
2017-02-10T07:57:54.906Z,2092
2017-02-10T07:58:55.291Z,2088
2017-02-10T07:59:55.271Z,2108
2017-02-10T08:00:55.247Z,2188
2017-02-10T08:01:54.838Z,2100
2017-02-10T08:02:55.216Z,2264
2017-02-10T08:03:55.190Z,2308
2017-02-10T08:04:55.186Z,2448
2017-02-10T08:05:55.150Z,2612
2017-02-10T08:06:55.160Z,2572
2017-02-10T08:07:55.135Z,2604
2017-02-10T08:08:55.142Z,2616
2017-02-10T08:09:55.084Z,2716
2017-02-10T08:10:55.078Z,2592
2017-02-10T08:11:55.056Z,2580
2017-02-10T08:12:55.041Z,2592
2017-02-10T08:13:55.012Z,2852
2017-02-10T08:14:54.994Z,2852
2017-02-10T08:15:54.985Z,2796
2017-02-10T08:16:54.563Z,2808
2017-02-10T08:17:54.940Z,2820
2017-02-10T08:18:54.922Z,2992
2017-02-10T08:19:54.911Z,3380
2017-02-10T08:20:54.894Z,3120
2017-02-10T08:21:54.873Z,3040
2017-02-10T08:22:54.868Z,3220
2017-02-10T08:23:54.435Z,3624
2017-02-10T08:24:54.820Z,3836
2017-02-10T08:25:54.810Z,3396
2017-02-10T08:26:54.777Z,3308
2017-02-10T08:27:54.370Z,3188
2017-02-10T08:28:54.748Z,3232
2017-02-10T08:29:54.345Z,3576
2017-02-10T08:30:54.732Z,3420
2017-02-10T08:31:54.691Z,3656
2017-02-10T08:32:54.680Z,3844
2017-02-10T08:33:54.656Z,3696
2017-02-10T08:34:54.660Z,3488
2017-02-10T08:35:54.632Z,3396
2017-02-10T08:36:54.607Z,3480
2017-02-10T08:37:54.587Z,3424
2017-02-10T08:38:54.580Z,3564
2017-02-10T08:39:54.158Z,3864
2017-02-10T08:40:54.545Z,4096
2017-02-10T08:41:54.529Z,4184
2017-02-10T08:42:54.507Z,4660
2017-02-10T08:43:54.094Z,5228
2017-02-10T08:44:54.470Z,4920
2017-02-10T08:45:54.050Z,5968
2017-02-10T08:46:54.432Z,5968
2017-02-10T08:47:54.423Z,5380
2017-02-10T08:48:54.002Z,5496
2017-02-10T08:49:54.390Z,5272
2017-02-10T08:50:54.372Z,5288
2017-02-10T08:51:53.956Z,5232
2017-02-10T08:52:53.940Z,4628
2017-02-10T08:53:53.911Z,4768
2017-02-10T08:54:54.317Z,4416
2017-02-10T08:55:54.283Z,4880
2017-02-10T08:56:54.271Z,4948
2017-02-10T08:57:54.246Z,4600
2017-02-10T08:58:54.226Z,4772
2017-02-10T08:59:54.220Z,5344
2017-02-10T09:00:54.200Z,5016
2017-02-10T09:01:54.178Z,5156
2017-02-10T09:02:53.765Z,5436
2017-02-10T09:03:54.147Z,5356
2017-02-10T09:04:54.135Z,5776
2017-02-10T09:05:54.142Z,5548
2017-02-10T09:06:53.705Z,5384
2017-02-10T09:07:53.684Z,5276
2017-02-10T09:08:54.069Z,6064
2017-02-10T09:09:53.647Z,5856
2017-02-10T09:10:54.035Z,5476
2017-02-10T09:11:54.015Z,6224
2017-02-10T09:12:53.602Z,6020
2017-02-10T09:13:53.976Z,6340
2017-02-10T09:14:54.006Z,6300
2017-02-10T09:15:53.958Z,5960
2017-02-10T09:16:53.939Z,5944
2017-02-10T09:17:53.922Z,6244
2017-02-10T09:18:53.898Z,5808
2017-02-10T09:19:54.446Z,5360
2017-02-10T09:20:53.968Z,5260
2017-02-10T09:21:53.850Z,5508
2017-02-10T09:22:53.827Z,5632
2017-02-10T09:23:53.818Z,5176
2017-02-10T09:24:53.795Z,5040
2017-02-10T09:25:53.790Z,5896
2017-02-10T09:26:53.766Z,5832
2017-02-10T09:27:53.747Z,5384
2017-02-10T09:28:53.735Z,4448
2017-02-10T09:29:53.721Z,4036
2017-02-10T09:30:53.308Z,4384
2017-02-10T09:31:53.690Z,4584
2017-02-10T09:32:53.667Z,4996
2017-02-10T09:33:53.654Z,4856
2017-02-10T09:34:53.637Z,4216
2017-02-10T09:35:53.734Z,4228
2017-02-10T09:36:53.609Z,4808
2017-02-10T09:37:53.581Z,4704
2017-02-10T09:38:53.583Z,4540
2017-02-10T09:39:53.566Z,4700
2017-02-10T09:40:53.635Z,4564
2017-02-10T09:41:53.533Z,4324
2017-02-10T09:42:53.503Z,4668
2017-02-10T09:43:53.503Z,4512
2017-02-10T09:44:53.475Z,5004
2017-02-10T09:45:53.466Z,5192
2017-02-10T09:46:53.044Z,4316
2017-02-10T09:47:53.433Z,4004
2017-02-10T09:48:53.423Z,4104
2017-02-10T09:49:53.390Z,4576
2017-02-10T09:50:53.388Z,4636
2017-02-10T09:51:53.365Z,4140
2017-02-10T09:52:53.338Z,4320
2017-02-10T09:53:53.339Z,5344
2017-02-10T09:54:53.314Z,5344
2017-02-10T09:55:53.393Z,5256
2017-02-10T09:56:53.276Z,5364
2017-02-10T09:57:52.870Z,4524
2017-02-10T09:58:53.260Z,4636
2017-02-10T09:59:53.233Z,4972
2017-02-10T10:00:52.913Z,5636
2017-02-10T10:01:53.191Z,6208
2017-02-10T10:02:53.177Z,5404
2017-02-10T10:03:53.175Z,5420
2017-02-10T10:04:53.166Z,5604
2017-02-10T10:05:52.734Z,6520
2017-02-10T10:06:53.134Z,5804
2017-02-10T10:07:53.105Z,6312
2017-02-10T10:08:53.098Z,6692
2017-02-10T10:09:53.062Z,6660
2017-02-10T10:10:53.149Z,6872
2017-02-10T10:11:53.039Z,6544
2017-02-10T10:12:53.022Z,6720
2017-02-10T10:13:53.039Z,6644
2017-02-10T10:14:52.997Z,6736
2017-02-10T10:15:52.977Z,6480
2017-02-10T10:16:52.944Z,6548
2017-02-10T10:17:52.931Z,6632
2017-02-10T10:18:52.923Z,7056
2017-02-10T10:19:52.906Z,7424
2017-02-10T10:20:52.887Z,7980
2017-02-10T10:21:52.875Z,7984
2017-02-10T10:22:52.868Z,8524
2017-02-10T10:23:52.849Z,8376
2017-02-10T10:24:52.832Z,8620
2017-02-10T10:25:52.905Z,9024
2017-02-10T10:26:52.795Z,8676
2017-02-10T10:27:52.779Z,8108
2017-02-10T10:28:52.756Z,8432
2017-02-10T10:29:52.747Z,8932
2017-02-10T10:30:52.828Z,8084
2017-02-10T10:31:52.715Z,9432
2017-02-10T10:32:52.700Z,9620
2017-02-10T10:33:52.680Z,8736
2017-02-10T10:34:52.682Z,9092
2017-02-10T10:35:52.656Z,8832
2017-02-10T10:36:52.626Z,7636
2017-02-10T10:37:52.622Z,8096
2017-02-10T10:38:52.205Z,8164
2017-02-10T10:39:52.592Z,8812
2017-02-10T10:40:52.273Z,8248
2017-02-10T10:41:52.551Z,8548
2017-02-10T10:42:52.536Z,9168
2017-02-10T10:43:52.527Z,8228
2017-02-10T10:44:52.501Z,8088
2017-02-10T10:45:52.102Z,8068
2017-02-10T10:46:52.484Z,7468
2017-02-10T10:47:52.462Z,6792
2017-02-10T10:48:52.440Z,6436
2017-02-10T10:49:52.469Z,6204
2017-02-10T10:50:52.424Z,5932
2017-02-10T10:51:52.392Z,5636
2017-02-10T10:52:52.375Z,5276
2017-02-10T10:53:52.369Z,5164
2017-02-10T10:54:52.346Z,4960
2017-02-10T10:55:52.355Z,4416
2017-02-10T10:56:52.313Z,4316
2017-02-10T10:57:52.303Z,4384
2017-02-10T10:58:52.277Z,4152
2017-02-10T10:59:52.274Z,4084
2017-02-10T11:00:52.249Z,3940
2017-02-10T11:01:52.238Z,3808
2017-02-10T11:02:52.221Z,4004
2017-02-10T11:03:52.220Z,3960
2017-02-10T11:04:52.235Z,3888
2017-02-10T11:05:52.178Z,3872
2017-02-10T11:06:52.165Z,3948
2017-02-10T11:07:52.156Z,4092
2017-02-10T11:08:52.132Z,4116
2017-02-10T11:09:52.111Z,4056
2017-02-10T11:10:52.107Z,4024
2017-02-10T11:11:52.091Z,4088
2017-02-10T11:12:52.078Z,4260
2017-02-10T11:13:52.059Z,4372
2017-02-10T11:14:51.638Z,4228
2017-02-10T11:15:52.018Z,4160
2017-02-10T11:16:52.037Z,4440
2017-02-10T11:17:51.987Z,4580
2017-02-10T11:18:51.972Z,4396
2017-02-10T11:19:51.963Z,4212
2017-02-10T11:20:51.939Z,4108
2017-02-10T11:21:51.512Z,3936
2017-02-10T11:22:51.908Z,3892
2017-02-10T11:23:51.899Z,3760
2017-02-10T11:24:51.866Z,3852
2017-02-10T11:25:51.855Z,4124
2017-02-10T11:26:51.867Z,4664
2017-02-10T11:27:51.836Z,4528
2017-02-10T11:28:51.809Z,4620
2017-02-10T11:29:51.783Z,4812
2017-02-10T11:30:51.787Z,4484
2017-02-10T11:31:51.361Z,4168
2017-02-10T11:32:51.734Z,4468
2017-02-10T11:33:51.732Z,4344
2017-02-10T11:34:51.705Z,4352
2017-02-10T11:35:51.689Z,4012
2017-02-10T11:36:51.679Z,3992
2017-02-10T11:37:51.673Z,4644
2017-02-10T11:38:51.240Z,4860
2017-02-10T11:39:51.229Z,4128
2017-02-10T11:40:51.609Z,4392
2017-02-10T11:41:51.600Z,4320
2017-02-10T11:42:51.597Z,4260
2017-02-10T11:43:51.570Z,4460
2017-02-10T11:44:51.546Z,4936
2017-02-10T11:45:51.532Z,5276
2017-02-10T11:46:51.509Z,5644
2017-02-10T11:47:51.107Z,5896
2017-02-10T11:48:51.477Z,6532
2017-02-10T11:49:51.473Z,6900
2017-02-10T11:50:51.448Z,5956
2017-02-10T11:51:51.431Z,6056
2017-02-10T11:52:51.425Z,6924
2017-02-10T11:53:51.409Z,7300
2017-02-10T11:54:51.386Z,7948
2017-02-10T11:55:51.374Z,6756
2017-02-10T11:56:51.353Z,5876
2017-02-10T11:57:51.348Z,6104
2017-02-10T11:58:51.326Z,7096
2017-02-10T11:59:51.300Z,7260
2017-02-10T12:00:51.303Z,7676
2017-02-10T12:01:51.371Z,7124
2017-02-10T12:02:50.863Z,6496
2017-02-10T12:03:51.236Z,6472
2017-02-10T12:04:50.829Z,6928
2017-02-10T12:05:51.217Z,7312
2017-02-10T12:06:51.197Z,7344
2017-02-10T12:07:51.187Z,6640
2017-02-10T12:08:51.170Z,7208
2017-02-10T12:09:51.154Z,7740
2017-02-10T12:10:51.127Z,7188
2017-02-10T12:11:51.126Z,7608
2017-02-10T12:12:51.102Z,7944
2017-02-10T12:13:50.680Z,7480
2017-02-10T12:14:51.084Z,6676
2017-02-10T12:15:51.061Z,6292
2017-02-10T12:16:51.043Z,6808
2017-02-10T12:17:51.018Z,7232
2017-02-10T12:18:51.027Z,6432
2017-02-10T12:19:51.003Z,6764
2017-02-10T12:20:50.979Z,6184
2017-02-10T12:21:50.966Z,5932
2017-02-10T12:22:50.955Z,6004
2017-02-10T12:23:50.945Z,5780
2017-02-10T12:24:50.912Z,5376
2017-02-10T12:25:50.912Z,5268
2017-02-10T12:26:50.887Z,5604
2017-02-10T12:27:50.864Z,5776
2017-02-10T12:28:50.871Z,5904
2017-02-10T12:29:50.850Z,6344
2017-02-10T12:30:50.829Z,6380
2017-02-10T12:31:50.814Z,5964
2017-02-10T12:32:50.804Z,5840
2017-02-10T12:33:50.785Z,5992
2017-02-10T12:34:50.756Z,6012
2017-02-10T12:35:50.743Z,5840
2017-02-10T12:36:50.835Z,6492
2017-02-10T12:37:50.721Z,6240
2017-02-10T12:38:50.298Z,6196
2017-02-10T12:39:50.679Z,5860
2017-02-10T12:40:50.669Z,5384
2017-02-10T12:41:50.655Z,5064
2017-02-10T12:42:50.640Z,5432
2017-02-10T12:43:50.623Z,5888
2017-02-10T12:44:50.606Z,5756
2017-02-10T12:45:50.595Z,5288
2017-02-10T12:46:50.587Z,4984
2017-02-10T12:47:50.572Z,4624
2017-02-10T12:48:50.551Z,4576
2017-02-10T12:49:50.538Z,4328
2017-02-10T12:50:50.522Z,4368
2017-02-10T12:51:50.503Z,4568
2017-02-10T12:52:50.502Z,4516
2017-02-10T12:53:50.470Z,4952
2017-02-10T12:54:50.460Z,4920
2017-02-10T12:55:50.080Z,5492
2017-02-10T12:56:50.423Z,5384
2017-02-10T12:57:50.423Z,4808
2017-02-10T12:58:50.387Z,5204
2017-02-10T12:59:50.378Z,4984
2017-02-10T13:00:50.375Z,4672
2017-02-10T13:01:50.347Z,4812
2017-02-10T13:02:50.341Z,4596
2017-02-10T13:03:49.918Z,4568
2017-02-10T13:04:49.907Z,5264
2017-02-10T13:05:50.297Z,6020
2017-02-10T13:06:50.270Z,5464
2017-02-10T13:07:50.270Z,5280
2017-02-10T13:08:50.250Z,4956
2017-02-10T13:09:50.242Z,5000
2017-02-10T13:10:50.208Z,5688
2017-02-10T13:11:50.200Z,5916
2017-02-10T13:12:50.180Z,5940
2017-02-10T13:13:49.768Z,5672
2017-02-10T13:14:50.156Z,5388
2017-02-10T13:15:50.134Z,5220
2017-02-10T13:16:50.129Z,5824
2017-02-10T13:17:49.703Z,6100
2017-02-10T13:18:49.693Z,5848
2017-02-10T13:19:49.678Z,6300
2017-02-10T13:20:49.652Z,6992
2017-02-10T13:21:50.064Z,7812
2017-02-10T13:22:49.620Z,7304
2017-02-10T13:23:50.012Z,6336
2017-02-10T13:24:50.010Z,6464
2017-02-10T13:25:49.582Z,7048
2017-02-10T13:26:49.994Z,7200
2017-02-10T13:27:49.950Z,7476
2017-02-10T13:28:49.958Z,7352
2017-02-10T13:29:49.922Z,6768
2017-02-10T13:30:49.512Z,7452
2017-02-10T13:31:49.486Z,7300
2017-02-10T13:32:49.877Z,6788
2017-02-10T13:33:49.867Z,6424
2017-02-10T13:34:49.861Z,6636
2017-02-10T13:35:49.833Z,6704
2017-02-10T13:36:49.927Z,6964
2017-02-10T13:37:49.812Z,6772
2017-02-10T13:38:49.785Z,7092
2017-02-10T13:39:49.771Z,7484
2017-02-10T13:40:49.768Z,6844
2017-02-10T13:41:49.739Z,6796
2017-02-10T13:42:49.725Z,7064
2017-02-10T13:43:49.723Z,7752
2017-02-10T13:44:49.728Z,7336
2017-02-10T13:45:49.681Z,7444
2017-02-10T13:46:49.666Z,7004
2017-02-10T13:47:49.649Z,6668
2017-02-10T13:48:49.647Z,6708
2017-02-10T13:49:49.629Z,6452
2017-02-10T13:50:49.606Z,6644
2017-02-10T13:51:49.188Z,7004
2017-02-10T13:52:49.576Z,7000
2017-02-10T13:53:49.559Z,6576
2017-02-10T13:54:49.552Z,6328
2017-02-10T13:55:49.531Z,6172
2017-02-10T13:56:49.524Z,6088
2017-02-10T13:57:49.507Z,6160